sensor_id;sensor_type;location;lat;lon;timestamp;temperature;humidity
63899;HTU21D;50070;-32.946;-60.652;2022-08-19T00:01:48;12.61;24.46
63899;HTU21D;50070;-32.946;-60.652;2022-08-19T00:04:17;12.74;24.65
63899;HTU21D;50070;-32.946;-60.652;2022-08-19T00:06:46;12.59;24.46
63899;HTU21D;50070;-32.946;-60.652;2022-08-19T00:09:15;12.91;24.16
63899;HTU21D;50070;-32.946;-60.652;2022-08-19T00:11:43;12.72;24.22
63899;HTU21D;50070;-32.946;-60.652;2022-08-19T00:14:13;12.55;24.39
63899;HTU21D;50070;-32.946;-60.652;2022-08-19T00:16:43;12.34;25.04
63899;HTU21D;50070;-32.946;-60.652;2022-08-19T00:19:13;12.26;25.11
63899;HTU21D;50070;-32.946;-60.652;2022-08-19T00:21:40;12.11;25.72
63899;HTU21D;50070;-32.946;-60.652;2022-08-19T00:24:09;12.11;25.32
63899;HTU21D;50070;-32.946;-60.652;2022-08-19T00:26:37;12.08;25.31
63899;HTU21D;50070;-32.946;-60.652;2022-08-19T00:29:05;12.19;25.31
63899;HTU21D;50070;-32.946;-60.652;2022-08-19T00:31:33;12.20;25.22
63899;HTU21D;50070;-32.946;-60.652;2022-08-19T00:34:00;11.90;25.97
63899;HTU21D;50070;-32.946;-60.652;2022-08-19T00:36:26;12.07;26.17
63899;HTU21D;50070;-32.946;-60.652;2022-08-19T00:38:54;12.30;25.79
63899;HTU21D;50070;-32.946;-60.652;2022-08-19T00:41:23;12.31;25.46
63899;HTU21D;50070;-32.946;-60.652;2022-08-19T00:44:00;12.46;25.65
63899;HTU21D;50070;-32.946;-60.652;2022-08-19T00:46:27;12.30;26.52
63899;HTU21D;50070;-32.946;-60.652;2022-08-19T00:48:55;12.21;25.78
63899;HTU21D;50070;-32.946;-60.652;2022-08-19T00:51:26;12.50;25.69
63899;HTU21D;50070;-32.946;-60.652;2022-08-19T00:53:58;12.45;25.50
63899;HTU21D;50070;-32.946;-60.652;2022-08-19T00:56:28;12.05;26.01
63899;HTU21D;50070;-32.946;-60.652;2022-08-19T00:58:58;11.99;25.67
63899;HTU21D;50070;-32.946;-60.652;2022-08-19T01:01:26;11.91;26.46
63899;HTU21D;50070;-32.946;-60.652;2022-08-19T01:03:53;12.15;25.96
63899;HTU21D;50070;-32.946;-60.652;2022-08-19T01:06:20;11.93;26.55
63899;HTU21D;50070;-32.946;-60.652;2022-08-19T01:08:47;11.90;27.04
63899;HTU21D;50070;-32.946;-60.652;2022-08-19T01:11:14;11.98;27.23
63899;HTU21D;50070;-32.946;-60.652;2022-08-19T01:13:40;12.06;27.02
63899;HTU21D;50070;-32.946;-60.652;2022-08-19T01:16:11;12.01;27.00
63899;HTU21D;50070;-32.946;-60.652;2022-08-19T01:18:41;12.07;26.15
63899;HTU21D;50070;-32.946;-60.652;2022-08-19T01:21:32;11.99;27.32
63899;HTU21D;50070;-32.946;-60.652;2022-08-19T01:23:57;12.21;26.16
63899;HTU21D;50070;-32.946;-60.652;2022-08-19T01:26:25;11.83;27.51
63899;HTU21D;50070;-32.946;-60.652;2022-08-19T01:28:55;11.70;27.45
63899;HTU21D;50070;-32.946;-60.652;2022-08-19T01:31:25;11.77;27.78
63899;HTU21D;50070;-32.946;-60.652;2022-08-19T01:33:54;11.84;28.07
63899;HTU21D;50070;-32.946;-60.652;2022-08-19T01:36:32;11.91;27.76
63899;HTU21D;50070;-32.946;-60.652;2022-08-19T01:39:01;11.83;27.81
63899;HTU21D;50070;-32.946;-60.652;2022-08-19T01:41:30;11.71;27.81
63899;HTU21D;50070;-32.946;-60.652;2022-08-19T01:43:57;11.75;27.26
63899;HTU21D;50070;-32.946;-60.652;2022-08-19T01:46:23;11.78;27.54
63899;HTU21D;50070;-32.946;-60.652;2022-08-19T01:48:50;11.88;27.27
63899;HTU21D;50070;-32.946;-60.652;2022-08-19T01:51:17;11.77;27.85
63899;HTU21D;50070;-32.946;-60.652;2022-08-19T01:53:47;11.74;27.84
63899;HTU21D;50070;-32.946;-60.652;2022-08-19T01:56:15;12.14;26.97
63899;HTU21D;50070;-32.946;-60.652;2022-08-19T01:58:47;11.90;27.41
63899;HTU21D;50070;-32.946;-60.652;2022-08-19T02:01:16;11.98;27.45
63899;HTU21D;50070;-32.946;-60.652;2022-08-19T02:03:43;11.96;27.68
63899;HTU21D;50070;-32.946;-60.652;2022-08-19T02:06:10;11.94;27.88
63899;HTU21D;50070;-32.946;-60.652;2022-08-19T02:08:38;11.87;27.92
63899;HTU21D;50070;-32.946;-60.652;2022-08-19T02:11:06;11.84;28.26
63899;HTU21D;50070;-32.946;-60.652;2022-08-19T02:13:33;11.78;28.05
63899;HTU21D;50070;-32.946;-60.652;2022-08-19T02:16:00;11.82;28.19
63899;HTU21D;50070;-32.946;-60.652;2022-08-19T02:18:27;11.93;27.98
63899;HTU21D;50070;-32.946;-60.652;2022-08-19T02:20:54;11.92;28.00
63899;HTU21D;50070;-32.946;-60.652;2022-08-19T02:23:21;11.94;28.10
63899;HTU21D;50070;-32.946;-60.652;2022-08-19T02:25:48;11.99;27.97
63899;HTU21D;50070;-32.946;-60.652;2022-08-19T02:28:15;12.04;27.82
63899;HTU21D;50070;-32.946;-60.652;2022-08-19T02:30:42;11.85;27.97
63899;HTU21D;50070;-32.946;-60.652;2022-08-19T02:33:09;11.92;27.97
63899;HTU21D;50070;-32.946;-60.652;2022-08-19T02:35:36;11.96;28.04
63899;HTU21D;50070;-32.946;-60.652;2022-08-19T02:38:02;11.87;28.17
63899;HTU21D;50070;-32.946;-60.652;2022-08-19T02:41:02;11.84;28.44
63899;HTU21D;50070;-32.946;-60.652;2022-08-19T02:43:31;11.88;28.36
63899;HTU21D;50070;-32.946;-60.652;2022-08-19T02:45:58;11.86;28.65
63899;HTU21D;50070;-32.946;-60.652;2022-08-19T02:48:25;11.73;29.22
63899;HTU21D;50070;-32.946;-60.652;2022-08-19T02:50:53;11.66;29.16
63899;HTU21D;50070;-32.946;-60.652;2022-08-19T02:53:24;11.68;28.93
63899;HTU21D;50070;-32.946;-60.652;2022-08-19T02:55:52;11.59;28.93
63899;HTU21D;50070;-32.946;-60.652;2022-08-19T02:58:20;11.59;29.28
63899;HTU21D;50070;-32.946;-60.652;2022-08-19T03:00:53;11.55;29.48
63899;HTU21D;50070;-32.946;-60.652;2022-08-19T03:03:20;11.53;29.59
63899;HTU21D;50070;-32.946;-60.652;2022-08-19T03:05:47;11.54;29.94
63899;HTU21D;50070;-32.946;-60.652;2022-08-19T03:08:15;11.44;30.19
63899;HTU21D;50070;-32.946;-60.652;2022-08-19T03:10:46;11.38;30.34
63899;HTU21D;50070;-32.946;-60.652;2022-08-19T03:13:16;11.37;30.53
63899;HTU21D;50070;-32.946;-60.652;2022-08-19T03:15:43;11.42;30.48
63899;HTU21D;50070;-32.946;-60.652;2022-08-19T03:18:10;11.36;30.91
63899;HTU21D;50070;-32.946;-60.652;2022-08-19T03:20:46;11.28;30.64
63899;HTU21D;50070;-32.946;-60.652;2022-08-19T03:23:13;11.19;30.91
63899;HTU21D;50070;-32.946;-60.652;2022-08-19T03:25:43;11.01;30.82
63899;HTU21D;50070;-32.946;-60.652;2022-08-19T03:28:14;11.10;30.42
63899;HTU21D;50070;-32.946;-60.652;2022-08-19T03:30:42;11.01;30.70
63899;HTU21D;50070;-32.946;-60.652;2022-08-19T03:33:11;10.89;30.34
63899;HTU21D;50070;-32.946;-60.652;2022-08-19T03:35:40;10.94;30.48
63899;HTU21D;50070;-32.946;-60.652;2022-08-19T03:38:07;10.92;30.48
63899;HTU21D;50070;-32.946;-60.652;2022-08-19T03:40:37;10.87;31.19
63899;HTU21D;50070;-32.946;-60.652;2022-08-19T03:43:03;10.68;31.74
63899;HTU21D;50070;-32.946;-60.652;2022-08-19T03:45:31;10.51;31.51
63899;HTU21D;50070;-32.946;-60.652;2022-08-19T03:47:58;10.31;31.33
63899;HTU21D;50070;-32.946;-60.652;2022-08-19T03:50:25;10.37;31.03
63899;HTU21D;50070;-32.946;-60.652;2022-08-19T03:52:52;10.15;30.92
63899;HTU21D;50070;-32.946;-60.652;2022-08-19T03:55:19;10.41;30.97
63899;HTU21D;50070;-32.946;-60.652;2022-08-19T03:57:49;10.38;31.35
63899;HTU21D;50070;-32.946;-60.652;2022-08-19T04:00:16;10.33;31.37
63899;HTU21D;50070;-32.946;-60.652;2022-08-19T04:02:43;10.36;30.91
63899;HTU21D;50070;-32.946;-60.652;2022-08-19T04:05:09;10.48;30.95
63899;HTU21D;50070;-32.946;-60.652;2022-08-19T04:07:36;10.33;29.54
63899;HTU21D;50070;-32.946;-60.652;2022-08-19T04:10:03;10.12;30.08
63899;HTU21D;50070;-32.946;-60.652;2022-08-19T04:12:30;9.98;29.80
63899;HTU21D;50070;-32.946;-60.652;2022-08-19T04:14:57;9.82;30.03
63899;HTU21D;50070;-32.946;-60.652;2022-08-19T04:17:24;9.91;30.07
63899;HTU21D;50070;-32.946;-60.652;2022-08-19T04:19:51;9.94;29.80
63899;HTU21D;50070;-32.946;-60.652;2022-08-19T04:22:18;9.83;29.80
63899;HTU21D;50070;-32.946;-60.652;2022-08-19T04:24:45;9.96;29.77
63899;HTU21D;50070;-32.946;-60.652;2022-08-19T04:27:12;10.03;29.98
63899;HTU21D;50070;-32.946;-60.652;2022-08-19T04:29:38;10.05;30.40
63899;HTU21D;50070;-32.946;-60.652;2022-08-19T04:32:06;10.01;30.40
63899;HTU21D;50070;-32.946;-60.652;2022-08-19T04:34:33;9.97;30.74
63899;HTU21D;50070;-32.946;-60.652;2022-08-19T04:37:00;9.94;30.19
63899;HTU21D;50070;-32.946;-60.652;2022-08-19T04:39:29;9.88;29.95
63899;HTU21D;50070;-32.946;-60.652;2022-08-19T04:42:16;9.84;30.26
63899;HTU21D;50070;-32.946;-60.652;2022-08-19T04:45:02;9.86;30.29
63899;HTU21D;50070;-32.946;-60.652;2022-08-19T04:47:30;9.74;30.09
63899;HTU21D;50070;-32.946;-60.652;2022-08-19T04:49:59;9.69;29.82
63899;HTU21D;50070;-32.946;-60.652;2022-08-19T04:52:26;9.57;29.38
63899;HTU21D;50070;-32.946;-60.652;2022-08-19T04:54:53;9.52;29.04
63899;HTU21D;50070;-32.946;-60.652;2022-08-19T04:57:21;9.38;29.05
63899;HTU21D;50070;-32.946;-60.652;2022-08-19T04:59:48;9.40;28.84
63899;HTU21D;50070;-32.946;-60.652;2022-08-19T05:02:15;9.18;28.97
63899;HTU21D;50070;-32.946;-60.652;2022-08-19T05:04:42;9.03;29.26
63899;HTU21D;50070;-32.946;-60.652;2022-08-19T05:07:09;9.25;29.27
63899;HTU21D;50070;-32.946;-60.652;2022-08-19T05:09:36;9.44;29.32
63899;HTU21D;50070;-32.946;-60.652;2022-08-19T05:12:03;9.38;29.45
63899;HTU21D;50070;-32.946;-60.652;2022-08-19T05:14:29;9.27;29.21
63899;HTU21D;50070;-32.946;-60.652;2022-08-19T05:16:56;9.20;29.19
63899;HTU21D;50070;-32.946;-60.652;2022-08-19T05:19:23;9.04;29.23
63899;HTU21D;50070;-32.946;-60.652;2022-08-19T05:22:08;8.81;29.67
63899;HTU21D;50070;-32.946;-60.652;2022-08-19T05:24:52;9.03;29.77
63899;HTU21D;50070;-32.946;-60.652;2022-08-19T05:27:19;9.11;29.74
63899;HTU21D;50070;-32.946;-60.652;2022-08-19T05:29:46;9.21;29.39
63899;HTU21D;50070;-32.946;-60.652;2022-08-19T05:32:13;9.22;29.39
63899;HTU21D;50070;-32.946;-60.652;2022-08-19T05:34:40;9.17;29.66
63899;HTU21D;50070;-32.946;-60.652;2022-08-19T05:37:07;9.16;29.74
63899;HTU21D;50070;-32.946;-60.652;2022-08-19T05:39:36;9.08;29.47
63899;HTU21D;50070;-32.946;-60.652;2022-08-19T05:42:08;9.16;29.58
63899;HTU21D;50070;-32.946;-60.652;2022-08-19T05:44:41;8.98;30.16
63899;HTU21D;50070;-32.946;-60.652;2022-08-19T05:47:13;9.00;29.99
63899;HTU21D;50070;-32.946;-60.652;2022-08-19T05:49:41;8.92;29.62
63899;HTU21D;50070;-32.946;-60.652;2022-08-19T05:52:11;8.82;30.00
63899;HTU21D;50070;-32.946;-60.652;2022-08-19T05:54:40;8.74;30.34
63899;HTU21D;50070;-32.946;-60.652;2022-08-19T05:57:09;8.81;30.20
63899;HTU21D;50070;-32.946;-60.652;2022-08-19T05:59:36;8.65;30.42
63899;HTU21D;50070;-32.946;-60.652;2022-08-19T06:02:04;8.78;30.23
63899;HTU21D;50070;-32.946;-60.652;2022-08-19T06:04:31;8.50;30.11
63899;HTU21D;50070;-32.946;-60.652;2022-08-19T06:06:58;8.41;30.22
63899;HTU21D;50070;-32.946;-60.652;2022-08-19T06:09:25;8.31;29.93
63899;HTU21D;50070;-32.946;-60.652;2022-08-19T06:11:55;8.30;30.29
63899;HTU21D;50070;-32.946;-60.652;2022-08-19T06:14:26;8.49;29.81
63899;HTU21D;50070;-32.946;-60.652;2022-08-19T06:16:53;8.65;29.48
63899;HTU21D;50070;-32.946;-60.652;2022-08-19T06:19:21;8.56;29.90
63899;HTU21D;50070;-32.946;-60.652;2022-08-19T06:21:49;8.66;29.88
63899;HTU21D;50070;-32.946;-60.652;2022-08-19T06:24:21;8.66;29.90
63899;HTU21D;50070;-32.946;-60.652;2022-08-19T06:26:52;8.55;30.26
63899;HTU21D;50070;-32.946;-60.652;2022-08-19T06:29:22;8.74;30.00
63899;HTU21D;50070;-32.946;-60.652;2022-08-19T06:31:58;8.58;30.28
63899;HTU21D;50070;-32.946;-60.652;2022-08-19T06:34:26;8.61;29.91
63899;HTU21D;50070;-32.946;-60.652;2022-08-19T06:36:56;8.64;29.69
63899;HTU21D;50070;-32.946;-60.652;2022-08-19T06:39:26;8.56;29.92
63899;HTU21D;50070;-32.946;-60.652;2022-08-19T06:41:55;8.48;29.71
63899;HTU21D;50070;-32.946;-60.652;2022-08-19T06:44:24;8.13;30.29
63899;HTU21D;50070;-32.946;-60.652;2022-08-19T06:46:53;8.36;30.08
63899;HTU21D;50070;-32.946;-60.652;2022-08-19T06:49:20;8.37;30.13
63899;HTU21D;50070;-32.946;-60.652;2022-08-19T06:51:48;8.55;29.87
63899;HTU21D;50070;-32.946;-60.652;2022-08-19T06:54:17;8.55;29.93
63899;HTU21D;50070;-32.946;-60.652;2022-08-19T06:56:44;8.49;29.67
63899;HTU21D;50070;-32.946;-60.652;2022-08-19T06:59:15;8.53;29.83
63899;HTU21D;50070;-32.946;-60.652;2022-08-19T07:01:46;8.41;30.13
63899;HTU21D;50070;-32.946;-60.652;2022-08-19T07:04:16;8.44;30.01
63899;HTU21D;50070;-32.946;-60.652;2022-08-19T07:06:44;8.39;30.13
63899;HTU21D;50070;-32.946;-60.652;2022-08-19T07:09:12;8.47;29.92
63899;HTU21D;50070;-32.946;-60.652;2022-08-19T07:11:44;8.41;30.01
63899;HTU21D;50070;-32.946;-60.652;2022-08-19T07:14:12;8.57;29.98
63899;HTU21D;50070;-32.946;-60.652;2022-08-19T07:16:40;8.53;29.80
63899;HTU21D;50070;-32.946;-60.652;2022-08-19T07:19:06;8.38;29.96
63899;HTU21D;50070;-32.946;-60.652;2022-08-19T07:21:33;8.47;30.14
63899;HTU21D;50070;-32.946;-60.652;2022-08-19T07:24:02;8.58;29.88
63899;HTU21D;50070;-32.946;-60.652;2022-08-19T07:26:33;8.47;29.80
63899;HTU21D;50070;-32.946;-60.652;2022-08-19T07:29:05;8.52;30.22
63899;HTU21D;50070;-32.946;-60.652;2022-08-19T07:31:32;8.49;30.28
63899;HTU21D;50070;-32.946;-60.652;2022-08-19T07:34:09;8.37;30.29
63899;HTU21D;50070;-32.946;-60.652;2022-08-19T07:36:39;8.33;30.54
63899;HTU21D;50070;-32.946;-60.652;2022-08-19T07:39:10;8.30;30.76
63899;HTU21D;50070;-32.946;-60.652;2022-08-19T07:41:38;8.18;30.55
63899;HTU21D;50070;-32.946;-60.652;2022-08-19T07:44:06;8.17;30.86
63899;HTU21D;50070;-32.946;-60.652;2022-08-19T07:46:40;8.24;30.53
63899;HTU21D;50070;-32.946;-60.652;2022-08-19T07:49:08;8.28;30.47
63899;HTU21D;50070;-32.946;-60.652;2022-08-19T07:51:39;8.12;30.71
63899;HTU21D;50070;-32.946;-60.652;2022-08-19T07:54:06;8.31;30.58
63899;HTU21D;50070;-32.946;-60.652;2022-08-19T07:56:32;8.38;30.44
63899;HTU21D;50070;-32.946;-60.652;2022-08-19T07:58:59;8.27;30.61
63899;HTU21D;50070;-32.946;-60.652;2022-08-19T08:01:27;8.20;30.74
63899;HTU21D;50070;-32.946;-60.652;2022-08-19T08:03:56;8.22;30.81
63899;HTU21D;50070;-32.946;-60.652;2022-08-19T08:06:41;8.05;31.05
63899;HTU21D;50070;-32.946;-60.652;2022-08-19T08:09:30;7.97;31.40
63899;HTU21D;50070;-32.946;-60.652;2022-08-19T08:12:01;7.76;31.50
63899;HTU21D;50070;-32.946;-60.652;2022-08-19T08:14:32;7.85;31.41
63899;HTU21D;50070;-32.946;-60.652;2022-08-19T08:17:00;8.03;30.90
63899;HTU21D;50070;-32.946;-60.652;2022-08-19T08:19:28;8.02;31.11
63899;HTU21D;50070;-32.946;-60.652;2022-08-19T08:21:57;7.98;31.21
63899;HTU21D;50070;-32.946;-60.652;2022-08-19T08:24:30;7.98;31.17
63899;HTU21D;50070;-32.946;-60.652;2022-08-19T08:26:58;7.83;31.61
63899;HTU21D;50070;-32.946;-60.652;2022-08-19T08:29:27;7.92;31.61
63899;HTU21D;50070;-32.946;-60.652;2022-08-19T08:31:55;7.75;31.76
63899;HTU21D;50070;-32.946;-60.652;2022-08-19T08:34:22;7.92;31.43
63899;HTU21D;50070;-32.946;-60.652;2022-08-19T08:36:49;7.86;31.43
63899;HTU21D;50070;-32.946;-60.652;2022-08-19T08:39:20;7.86;31.73
63899;HTU21D;50070;-32.946;-60.652;2022-08-19T08:44:49;7.89;31.38
63899;HTU21D;50070;-32.946;-60.652;2022-08-19T08:47:20;7.88;31.56
63899;HTU21D;50070;-32.946;-60.652;2022-08-19T08:49:54;7.89;31.45
63899;HTU21D;50070;-32.946;-60.652;2022-08-19T08:52:28;7.87;31.58
63899;HTU21D;50070;-32.946;-60.652;2022-08-19T08:54:58;7.85;31.61
63899;HTU21D;50070;-32.946;-60.652;2022-08-19T08:57:37;7.77;31.78
63899;HTU21D;50070;-32.946;-60.652;2022-08-19T09:00:10;7.89;31.18
63899;HTU21D;50070;-32.946;-60.652;2022-08-19T09:02:38;7.91;31.37
63899;HTU21D;50070;-32.946;-60.652;2022-08-19T09:05:05;7.77;31.51
63899;HTU21D;50070;-32.946;-60.652;2022-08-19T09:10:44;7.45;31.76
63899;HTU21D;50070;-32.946;-60.652;2022-08-19T09:16:24;7.42;31.82
63899;HTU21D;50070;-32.946;-60.652;2022-08-19T09:18:56;7.48;31.67
63899;HTU21D;50070;-32.946;-60.652;2022-08-19T09:21:25;7.23;32.12
63899;HTU21D;50070;-32.946;-60.652;2022-08-19T09:23:53;7.14;32.41
63899;HTU21D;50070;-32.946;-60.652;2022-08-19T09:26:22;7.04;32.84
63899;HTU21D;50070;-32.946;-60.652;2022-08-19T09:28:51;6.87;32.88
63899;HTU21D;50070;-32.946;-60.652;2022-08-19T09:31:22;6.99;32.72
63899;HTU21D;50070;-32.946;-60.652;2022-08-19T09:33:50;7.10;32.73
63899;HTU21D;50070;-32.946;-60.652;2022-08-19T09:36:19;6.97;32.70
63899;HTU21D;50070;-32.946;-60.652;2022-08-19T09:38:48;6.53;33.33
63899;HTU21D;50070;-32.946;-60.652;2022-08-19T09:41:18;6.80;33.15
63899;HTU21D;50070;-32.946;-60.652;2022-08-19T09:43:47;6.94;32.95
63899;HTU21D;50070;-32.946;-60.652;2022-08-19T09:46:15;6.82;32.99
63899;HTU21D;50070;-32.946;-60.652;2022-08-19T09:48:45;7.00;32.99
63899;HTU21D;50070;-32.946;-60.652;2022-08-19T09:51:25;6.97;33.05
63899;HTU21D;50070;-32.946;-60.652;2022-08-19T09:53:54;7.18;32.89
63899;HTU21D;50070;-32.946;-60.652;2022-08-19T09:56:22;7.10;32.91
63899;HTU21D;50070;-32.946;-60.652;2022-08-19T09:58:49;7.20;32.64
63899;HTU21D;50070;-32.946;-60.652;2022-08-19T10:01:27;7.15;32.73
63899;HTU21D;50070;-32.946;-60.652;2022-08-19T10:03:56;7.24;32.62
63899;HTU21D;50070;-32.946;-60.652;2022-08-19T10:06:25;7.12;32.97
63899;HTU21D;50070;-32.946;-60.652;2022-08-19T10:08:52;7.03;32.88
63899;HTU21D;50070;-32.946;-60.652;2022-08-19T10:11:22;7.01;33.11
63899;HTU21D;50070;-32.946;-60.652;2022-08-19T10:13:48;6.95;32.96
63899;HTU21D;50070;-32.946;-60.652;2022-08-19T10:16:19;6.86;33.18
63899;HTU21D;50070;-32.946;-60.652;2022-08-19T10:18:50;6.96;33.28
63899;HTU21D;50070;-32.946;-60.652;2022-08-19T10:21:26;6.97;33.29
63899;HTU21D;50070;-32.946;-60.652;2022-08-19T10:23:55;7.09;33.54
63899;HTU21D;50070;-32.946;-60.652;2022-08-19T10:26:29;6.93;33.46
63899;HTU21D;50070;-32.946;-60.652;2022-08-19T10:28:57;6.91;33.58
63899;HTU21D;50070;-32.946;-60.652;2022-08-19T10:31:27;6.89;33.44
63899;HTU21D;50070;-32.946;-60.652;2022-08-19T10:33:55;6.72;34.23
63899;HTU21D;50070;-32.946;-60.652;2022-08-19T10:36:28;6.54;34.25
63899;HTU21D;50070;-32.946;-60.652;2022-08-19T10:38:57;6.65;34.23
63899;HTU21D;50070;-32.946;-60.652;2022-08-19T10:41:30;6.59;34.19
63899;HTU21D;50070;-32.946;-60.652;2022-08-19T10:44:00;6.43;34.21
63899;HTU21D;50070;-32.946;-60.652;2022-08-19T10:46:28;6.53;34.31
63899;HTU21D;50070;-32.946;-60.652;2022-08-19T10:48:59;6.63;33.98
63899;HTU21D;50070;-32.946;-60.652;2022-08-19T10:51:30;6.57;33.98
63899;HTU21D;50070;-32.946;-60.652;2022-08-19T10:54:16;6.57;33.94
63899;HTU21D;50070;-32.946;-60.652;2022-08-19T10:56:44;6.66;33.73
63899;HTU21D;50070;-32.946;-60.652;2022-08-19T10:59:26;6.90;33.60
63899;HTU21D;50070;-32.946;-60.652;2022-08-19T11:02:00;6.78;33.63
63899;HTU21D;50070;-32.946;-60.652;2022-08-19T11:04:27;6.95;33.49
63899;HTU21D;50070;-32.946;-60.652;2022-08-19T11:06:54;6.76;33.33
63899;HTU21D;50070;-32.946;-60.652;2022-08-19T11:09:23;6.63;34.01
63899;HTU21D;50070;-32.946;-60.652;2022-08-19T11:11:51;6.90;33.49
63899;HTU21D;50070;-32.946;-60.652;2022-08-19T11:14:19;6.89;33.42
63899;HTU21D;50070;-32.946;-60.652;2022-08-19T11:16:48;6.76;33.79
63899;HTU21D;50070;-32.946;-60.652;2022-08-19T11:19:16;6.83;33.65
63899;HTU21D;50070;-32.946;-60.652;2022-08-19T11:21:47;6.76;34.06
63899;HTU21D;50070;-32.946;-60.652;2022-08-19T11:24:16;6.81;33.95
63899;HTU21D;50070;-32.946;-60.652;2022-08-19T11:26:44;6.94;33.96
63899;HTU21D;50070;-32.946;-60.652;2022-08-19T11:29:12;7.02;33.78
63899;HTU21D;50070;-32.946;-60.652;2022-08-19T11:31:43;6.82;34.16
63899;HTU21D;50070;-32.946;-60.652;2022-08-19T11:34:13;7.15;33.70
63899;HTU21D;50070;-32.946;-60.652;2022-08-19T11:36:44;7.05;33.92
63899;HTU21D;50070;-32.946;-60.652;2022-08-19T11:39:14;6.84;34.28
63899;HTU21D;50070;-32.946;-60.652;2022-08-19T11:41:41;6.84;34.40
63899;HTU21D;50070;-32.946;-60.652;2022-08-19T11:44:08;7.20;34.14
63899;HTU21D;50070;-32.946;-60.652;2022-08-19T11:46:37;7.07;33.96
63899;HTU21D;50070;-32.946;-60.652;2022-08-19T11:49:05;7.11;33.68
63899;HTU21D;50070;-32.946;-60.652;2022-08-19T11:51:33;7.30;33.44
63899;HTU21D;50070;-32.946;-60.652;2022-08-19T11:54:01;7.16;33.79
63899;HTU21D;50070;-32.946;-60.652;2022-08-19T11:56:28;7.01;34.21
63899;HTU21D;50070;-32.946;-60.652;2022-08-19T11:58:57;6.86;34.04
63899;HTU21D;50070;-32.946;-60.652;2022-08-19T12:01:25;6.90;34.47
63899;HTU21D;50070;-32.946;-60.652;2022-08-19T12:03:53;7.01;34.35
63899;HTU21D;50070;-32.946;-60.652;2022-08-19T12:06:40;7.10;34.45
63899;HTU21D;50070;-32.946;-60.652;2022-08-19T12:09:08;7.22;34.03
63899;HTU21D;50070;-32.946;-60.652;2022-08-19T12:11:37;7.07;34.47
63899;HTU21D;50070;-32.946;-60.652;2022-08-19T12:14:04;7.12;34.37
63899;HTU21D;50070;-32.946;-60.652;2022-08-19T12:16:32;6.84;34.95
63899;HTU21D;50070;-32.946;-60.652;2022-08-19T12:19:00;6.94;34.61
63899;HTU21D;50070;-32.946;-60.652;2022-08-19T12:21:31;7.00;34.61
63899;HTU21D;50070;-32.946;-60.652;2022-08-19T12:24:00;7.00;34.65
63899;HTU21D;50070;-32.946;-60.652;2022-08-19T12:26:28;7.05;34.80
63899;HTU21D;50070;-32.946;-60.652;2022-08-19T12:28:55;7.19;34.46
63899;HTU21D;50070;-32.946;-60.652;2022-08-19T12:31:22;7.20;34.58
63899;HTU21D;50070;-32.946;-60.652;2022-08-19T12:33:49;7.38;34.34
63899;HTU21D;50070;-32.946;-60.652;2022-08-19T12:36:17;7.57;34.18
63899;HTU21D;50070;-32.946;-60.652;2022-08-19T12:38:44;7.64;33.92
63899;HTU21D;50070;-32.946;-60.652;2022-08-19T12:41:13;7.70;33.83
63899;HTU21D;50070;-32.946;-60.652;2022-08-19T12:43:41;8.01;33.83
63899;HTU21D;50070;-32.946;-60.652;2022-08-19T12:46:09;8.06;33.54
63899;HTU21D;50070;-32.946;-60.652;2022-08-19T12:48:36;8.19;33.27
63899;HTU21D;50070;-32.946;-60.652;2022-08-19T12:51:08;8.62;33.05
63899;HTU21D;50070;-32.946;-60.652;2022-08-19T12:53:36;8.73;32.87
63899;HTU21D;50070;-32.946;-60.652;2022-08-19T12:56:04;8.95;32.59
63899;HTU21D;50070;-32.946;-60.652;2022-08-19T12:58:31;8.85;32.65
63899;HTU21D;50070;-32.946;-60.652;2022-08-19T13:01:06;9.20;32.41
63899;HTU21D;50070;-32.946;-60.652;2022-08-19T13:03:33;9.42;32.26
63899;HTU21D;50070;-32.946;-60.652;2022-08-19T13:06:03;9.37;31.80
63899;HTU21D;50070;-32.946;-60.652;2022-08-19T13:08:30;9.36;31.80
63899;HTU21D;50070;-32.946;-60.652;2022-08-19T13:10:57;9.68;32.09
63899;HTU21D;50070;-32.946;-60.652;2022-08-19T13:13:24;9.88;31.73
63899;HTU21D;50070;-32.946;-60.652;2022-08-19T13:15:52;9.88;31.28
63899;HTU21D;50070;-32.946;-60.652;2022-08-19T13:18:19;10.00;30.55
63899;HTU21D;50070;-32.946;-60.652;2022-08-19T13:20:46;10.20;30.16
63899;HTU21D;50070;-32.946;-60.652;2022-08-19T13:23:12;10.25;30.36
63899;HTU21D;50070;-32.946;-60.652;2022-08-19T13:25:39;10.23;30.10
63899;HTU21D;50070;-32.946;-60.652;2022-08-19T13:28:06;10.19;30.36
63899;HTU21D;50070;-32.946;-60.652;2022-08-19T13:30:33;10.54;29.79
63899;HTU21D;50070;-32.946;-60.652;2022-08-19T13:33:18;10.57;29.22
63899;HTU21D;50070;-32.946;-60.652;2022-08-19T13:35:51;10.66;29.35
63899;HTU21D;50070;-32.946;-60.652;2022-08-19T13:38:24;10.97;29.00
63899;HTU21D;50070;-32.946;-60.652;2022-08-19T13:40:52;11.07;29.11
63899;HTU21D;50070;-32.946;-60.652;2022-08-19T13:43:21;11.40;28.71
63899;HTU21D;50070;-32.946;-60.652;2022-08-19T13:45:50;11.54;28.23
63899;HTU21D;50070;-32.946;-60.652;2022-08-19T13:48:20;11.47;27.78
63899;HTU21D;50070;-32.946;-60.652;2022-08-19T13:50:46;11.67;27.83
63899;HTU21D;50070;-32.946;-60.652;2022-08-19T13:53:15;11.86;28.07
63899;HTU21D;50070;-32.946;-60.652;2022-08-19T13:55:42;11.98;28.27
63899;HTU21D;50070;-32.946;-60.652;2022-08-19T13:58:10;12.18;28.22
63899;HTU21D;50070;-32.946;-60.652;2022-08-19T14:00:40;12.21;28.48
63899;HTU21D;50070;-32.946;-60.652;2022-08-19T14:03:08;12.43;28.66
63899;HTU21D;50070;-32.946;-60.652;2022-08-19T14:05:35;12.60;29.19
63899;HTU21D;50070;-32.946;-60.652;2022-08-19T14:08:02;12.80;29.14
63899;HTU21D;50070;-32.946;-60.652;2022-08-19T14:10:30;12.74;30.54
63899;HTU21D;50070;-32.946;-60.652;2022-08-19T14:13:00;12.96;30.82
63899;HTU21D;50070;-32.946;-60.652;2022-08-19T14:15:28;13.27;30.80
63899;HTU21D;50070;-32.946;-60.652;2022-08-19T14:17:55;13.30;30.02
63899;HTU21D;50070;-32.946;-60.652;2022-08-19T14:20:23;13.53;29.92
63899;HTU21D;50070;-32.946;-60.652;2022-08-19T14:22:50;13.54;29.29
63899;HTU21D;50070;-32.946;-60.652;2022-08-19T14:25:20;13.58;29.42
63899;HTU21D;50070;-32.946;-60.652;2022-08-19T14:27:48;13.75;28.78
63899;HTU21D;50070;-32.946;-60.652;2022-08-19T14:30:18;13.88;28.89
63899;HTU21D;50070;-32.946;-60.652;2022-08-19T14:32:45;13.88;28.69
63899;HTU21D;50070;-32.946;-60.652;2022-08-19T14:35:13;13.97;28.45
63899;HTU21D;50070;-32.946;-60.652;2022-08-19T14:37:42;14.21;28.14
63899;HTU21D;50070;-32.946;-60.652;2022-08-19T14:40:09;14.37;27.38
63899;HTU21D;50070;-32.946;-60.652;2022-08-19T14:42:37;14.32;27.38
63899;HTU21D;50070;-32.946;-60.652;2022-08-19T14:45:04;14.38;27.07
63899;HTU21D;50070;-32.946;-60.652;2022-08-19T14:47:31;14.36;27.27
63899;HTU21D;50070;-32.946;-60.652;2022-08-19T14:49:58;14.51;26.65
63899;HTU21D;50070;-32.946;-60.652;2022-08-19T14:52:25;14.56;26.83
63899;HTU21D;50070;-32.946;-60.652;2022-08-19T14:54:52;14.34;26.46
63899;HTU21D;50070;-32.946;-60.652;2022-08-19T14:57:19;14.24;26.74
63899;HTU21D;50070;-32.946;-60.652;2022-08-19T14:59:45;14.71;26.37
63899;HTU21D;50070;-32.946;-60.652;2022-08-19T15:02:12;14.54;25.83
63899;HTU21D;50070;-32.946;-60.652;2022-08-19T15:04:38;14.67;25.82